Latest Coastal Weather Observations for Rowley Shoals

IDW60701

Issued at 11:13 am WST Saturday 5 December 2020 (issued every 10 minutes, with the page automatically refreshed every 10 minutes)

About coastal observations | Map of coastal stations | Coastal observations for WA | Marine services | Other Formats
Station Details ID: 200713 Name: ROWLEY SHOALS Lat: -17.52 Lon: 118.95 Height: 0.0 m
Data from the previous 72 hours. | See also: Recent months at Rowley Shoals
Date/Time
WST
Wind Sea
Height
m
Swell Vis
km
Cloud Weather Temp
°C
Press
MSL
hPa
Rain since
9am
mm
Dir  Spd
kts
Gust
kts
Height
m
Period
s
Dir
05/11:00am S 9 11 - - - - - - - 29.9 1007.8 -
05/10:30am S 9 11 - - - - - - - 29.7 1007.7 -
05/10:00am S 5 7 - - - - - - - 30.8 1008.1 -
05/09:30am SSE 6 8 - - - - - - - 30.8 1008.6 -
05/09:00am SSE 6 8 - - - - - - - 30.2 1008.9 -
05/08:30am SSE 9 11 - - - - - - - 30.0 1008.9 -
05/08:00am S 7 9 - - - - - - - 29.7 1008.8 -
05/07:30am S 10 12 - - - - - - - 29.4 1008.4 -
05/07:00am SSW 10 11 - - - - - - - 29.2 1008.1 -
05/06:30am S 8 10 - - - - - - - 29.3 1008.2 -
05/06:00am S 6 9 - - - - - - - 29.5 1008.0 -
05/05:30am SW 11 11 - - - - - - - 29.1 1007.2 -
05/05:00am WSW 10 11 - - - - - - - 28.9 1006.8 -
05/04:30am WSW 11 12 - - - - - - - 29.2 1006.7 -
05/04:00am W 7 9 - - - - - - - 29.0 1006.8 -
05/03:30am W 6 7 - - - - - - - 29.2 1006.9 -
05/03:00am WNW 7 8 - - - - - - - 29.2 1006.9 -
05/02:30am NW 9 11 - - - - - - - 29.3 1006.8 -
05/02:00am NW 7 8 - - - - - - - 29.2 1006.9 -
05/01:30am NW 7 8 - - - - - - - 29.2 1006.9 -
05/01:00am NNW 7 8 - - - - - - - 29.3 1007.2 -
05/12:30am NW 7 7 - - - - - - - 29.3 1007.6 -
05/12:00am NNW 7 8 - - - - - - - 28.9 1008.0 -
 
Date/Time
WST
Wind Sea
Height
m
Swell Vis
km
Cloud Weather Temp
°C
Press
MSL
hPa
Rain since
9am
mm
Dir  Spd
kts
Gust
kts
Height
m
Period
s
Dir
04/11:30pm NNW 7 8 - - - - - - - 29.2 1008.3 -
04/11:00pm NNW 7 8 - - - - - - - 29.6 1009.0 -
04/10:30pm N 8 9 - - - - - - - 29.6 1009.5 -
04/10:00pm N 7 8 - - - - - - - 29.6 1009.4 -
04/09:30pm N 5 6 - - - - - - - 29.7 1009.3 -
04/09:00pm N 6 6 - - - - - - - 29.6 1008.9 -
04/08:30pm N 5 6 - - - - - - - 29.5 1008.6 -
04/08:00pm NNE 6 6 - - - - - - - 29.6 1008.3 -
04/07:30pm NE 5 6 - - - - - - - 29.7 1007.9 -
04/07:00pm NE 7 8 - - - - - - - 29.7 1007.6 -
04/06:30pm NE 7 8 - - - - - - - 29.6 1007.2 -
04/06:00pm ENE 9 10 - - - - - - - 29.7 1006.6 -
04/05:30pm ENE 9 10 - - - - - - - 29.8 1006.3 -
04/05:00pm E 10 11 - - - - - - - 29.7 1006.4 -
04/04:30pm E 11 13 - - - - - - - 30.0 1006.3 -
04/04:00pm E 13 14 - - - - - - - 30.1 1006.3 -
04/03:30pm ESE 13 15 - - - - - - - 29.9 1006.2 -
04/03:00pm ESE 15 17 - - - - - - - 30.3 1006.0 -
04/02:30pm ESE 15 17 - - - - - - - 30.0 1006.2 -
04/02:00pm ESE 14 16 - - - - - - - 29.8 1006.3 -
04/01:30pm ESE 13 16 - - - - - - - 29.8 1006.7 -
04/01:00pm ESE 15 18 - - - - - - - 29.6 1007.1 -
04/12:30pm ESE 15 18 - - - - - - - 29.6 1007.5 -
04/12:00pm ESE 16 19 - - - - - - - 29.7 1007.8 -
04/11:30am ESE 15 17 - - - - - - - 30.0 1008.2 -
04/11:00am ESE 16 19 - - - - - - - 29.9 1008.8 -
04/10:30am SE 17 19 - - - - - - - 29.7 1008.9 -
04/10:00am SE 15 18 - - - - - - - 30.1 1009.3 -
04/09:30am SE 17 19 - - - - - - - 29.7 1009.3 -
04/09:00am SE 15 19 - - - - - - - 29.6 1009.3 -
04/08:30am SE 15 17 - - - - - - - 29.6 1009.2 -
04/08:00am SE 14 16 - - - - - - - 29.6 1009.2 -
04/07:30am SE 10 19 - - - - - - - 29.4 1009.2 -
04/07:00am SSE 7 8 - - - - - - - 29.5 1009.2 -
04/06:30am SE 7 8 - - - - - - - 29.2 1009.0 -
04/06:00am SSE 6 7 - - - - - - - 29.3 1008.9 -
04/05:30am SE 6 7 - - - - - - - 29.0 1008.7 -
04/05:00am SSE 6 7 - - - - - - - 29.1 1008.7 -
04/04:30am SSE 3 4 - - - - - - - 29.2 1008.6 -
04/04:00am CALM 0 0 - - - - - - - 29.3 1008.2 -
04/03:30am CALM 0 0 - - - - - - - 29.2 1008.3 -
04/03:00am CALM 0 0 - - - - - - - 29.2 1008.2 -
04/02:30am NE 2 4 - - - - - - - 29.3 1008.2 -
04/02:00am CALM 0 0 - - - - - - - 29.3 1008.1 -
04/01:30am W 3 4 - - - - - - - 29.3 1008.0 -
04/01:00am NW 5 6 - - - - - - - 29.4 1008.2 -
04/12:30am NNW 7 8 - - - - - - - 29.5 1008.2 -
04/12:00am N 6 7 - - - - - - - 29.5 1008.7 -
 
Date/Time
WST
Wind Sea
Height
m
Swell Vis
km
Cloud Weather Temp
°C
Press
MSL
hPa
Rain since
9am
mm
Dir  Spd
kts
Gust
kts
Height
m
Period
s
Dir
03/11:30pm N 7 7 - - - - - - - 29.7 1008.8 -
03/11:00pm NNE 8 9 - - - - - - - 29.6 1009.3 -
03/10:30pm NNE 9 10 - - - - - - - 29.6 1009.6 -
03/10:00pm NE 9 10 - - - - - - - 29.8 1009.7 -
03/09:30pm NE 10 11 - - - - - - - 29.7 1009.3 -
03/09:00pm NE 8 9 - - - - - - - 29.7 1009.0 -
03/08:30pm NNE 9 10 - - - - - - - 29.6 1008.3 -
03/08:00pm N 7 8 - - - - - - - 29.5 1008.0 -
03/07:30pm NNE 7 8 - - - - - - - 29.6 1008.0 -
03/07:00pm NNE 7 9 - - - - - - - 29.7 1007.9 -
03/06:30pm NNE 7 8 - - - - - - - 29.9 1007.7 -
03/06:00pm NE 8 10 - - - - - - - 30.1 1007.2 -
03/05:30pm ENE 11 12 - - - - - - - 30.2 1007.0 -
03/05:00pm ENE 10 11 - - - - - - - 30.3 1006.9 -
03/04:30pm ENE 11 12 - - - - - - - 30.3 1006.9 -
03/04:00pm ENE 11 13 - - - - - - - 30.1 1006.8 -
03/03:30pm ENE 10 11 - - - - - - - 30.2 1006.6 -
03/03:00pm ENE 10 11 - - - - - - - 30.1 1006.7 -
03/02:30pm ENE 7 8 - - - - - - - 29.8 1006.7 -
03/02:00pm ENE 7 8 - - - - - - - 29.8 1007.0 -
03/01:30pm ENE 9 10 - - - - - - - 29.7 1007.3 -
03/01:00pm E 8 10 - - - - - - - 29.8 1007.5 -
03/12:30pm ENE 11 13 - - - - - - - 29.8 1007.9 -
03/12:00pm ENE 13 15 - - - - - - - 29.2 1008.4 -
03/11:30am E 13 15 - - - - - - - 29.2 1008.6 -
03/11:00am E 12 14 - - - - - - - 28.6 1008.9 -
03/10:30am SE 10 12 - - - - - - - 28.1 1009.0 -
03/10:00am ESE 11 14 - - - - - - - 28.0 1009.0 -
03/09:30am SE 11 13 - - - - - - - 27.6 1009.2 -
03/09:24am SE 13 18 - - - - - - - 27.6 1009.6 -
03/09:00am ESE 21 31 - - - - - - - 26.3 1010.4 -
03/08:59am ESE 22 32 - - - - - - - 26.6 1010.3 -
03/08:57am ESE 24 32 - - - - - - - 26.0 1010.4 -
03/08:39am SE 15 25 - - - - - - - 27.6 1009.9 -
03/08:30am SSE 12 14 - - - - - - - 29.0 1009.8 -
03/08:00am SE 11 12 - - - - - - - 29.7 1009.5 -
03/07:30am SSE 3 5 - - - - - - - 29.4 1009.3 -
03/07:00am SW 3 4 - - - - - - - 29.0 1009.0 -
03/06:30am S 6 7 - - - - - - - 29.0 1008.6 -
03/06:00am S 6 7 - - - - - - - 28.7 1008.3 -
03/05:30am CALM 0 3 - - - - - - - 28.6 1007.7 -
03/05:00am CALM 0 0 - - - - - - - 28.6 1007.1 -
03/04:30am CALM 0 0 - - - - - - - 28.6 1007.1 -
03/04:00am CALM 0 3 - - - - - - - 28.7 1007.0 -
03/03:30am S 1 3 - - - - - - - 28.7 1006.8 -
03/03:00am WSW 3 4 - - - - - - - 28.9 1006.7 -
03/02:30am SSW 3 4 - - - - - - - 29.0 1006.7 -
03/02:00am SW 3 5 - - - - - - - 29.0 1006.9 -
03/01:30am CALM 0 0 - - - - - - - 29.2 1007.0 -
03/01:00am CALM 0 3 - - - - - - - 29.1 1007.2 -
03/12:30am WNW 3 4 - - - - - - - 29.2 1007.5 -
03/12:00am NW 4 6 - - - - - - - 29.3 1008.0 -
 
Date/Time
WST
Wind Sea
Height
m
Swell Vis
km
Cloud Weather Temp
°C
Press
MSL
hPa
Rain since
9am
mm
Dir  Spd
kts
Gust
kts
Height
m
Period
s
Dir
02/11:30pm NW 5 5 - - - - - - - 29.6 1008.0 -
02/11:00pm NW 6 7 - - - - - - - 29.5 1008.0 -
02/10:30pm WNW 5 6 - - - - - - - 29.7 1008.3 -
02/10:00pm W 7 8 - - - - - - - 29.7 1008.3 -
02/09:30pm WSW 5 6 - - - - - - - 29.9 1008.6 -
02/09:00pm SSW 4 4 - - - - - - - 30.1 1008.7 -
02/08:30pm SSW 6 6 - - - - - - - 30.3 1008.4 -
02/08:00pm SSW 3 4 - - - - - - - 30.2 1008.1 -
02/07:30pm CALM 0 0 - - - - - - - 30.0 1008.0 -
02/07:00pm CALM 0 0 - - - - - - - 29.7 1007.7 -
02/06:30pm SW 4 5 - - - - - - - 29.8 1007.2 -
02/06:00pm SW 5 6 - - - - - - - 30.0 1006.8 -
02/05:30pm SW 6 7 - - - - - - - 29.9 1006.6 -
02/05:00pm SW 4 5 - - - - - - - 30.1 1006.7 -
02/04:30pm CALM 0 0 - - - - - - - 30.8 1006.9 -
02/04:00pm WSW 6 7 - - - - - - - 30.0 1006.4 -
02/03:30pm SW 5 6 - - - - - - - 29.7 1006.2 -
02/03:00pm WNW 3 5 - - - - - - - 29.9 1006.7 -
02/02:30pm NW 3 4 - - - - - - - 30.0 1007.0 -
02/02:00pm SSW 3 4 - - - - - - - 29.7 1007.3 -
02/01:30pm CALM 0 0 - - - - - - - 29.7 1007.6 -
02/01:00pm SSW 1 3 - - - - - - - 29.8 1007.9 -
02/12:30pm E 1 4 - - - - - - - 29.4 1008.3 -
02/12:00pm ENE 3 4 - - - - - - - 29.1 1008.8 -
02/11:30am CALM 0 0 - - - - - - - 29.3 1008.6 -

Other formats

Comma delimited format used in spreadsheet applications
http://www.bom.gov.au/fwo/IDW60701/IDW60701.94207.axf

JavaScript Object Notation format (JSON) in row-major order
http://www.bom.gov.au/fwo/IDW60701/IDW60701.94207.json

Data quality

Most of these data are generated automatically and are frequently updated. Quality checks on data are not normally performed. It is possible for incorrect values to appear. Refer to information at About Latest Weather Observations and please check the disclaimer before using these data.